Latest Weather Observations for Norah Head

IDN60801

Issued at 8:02 pm EST Saturday 30 May 2015 (issued every 30 minutes, with the page automatically refreshed every 10 minutes)

About weather observations | Map of weather stations | Latest weather observations for NSW | Other Formats
Station Details ID: 061366 Name: NORAH HEAD AWS Lat: -33.28 Lon: 151.58 Height: 18.8 m
Data from the previous 72 hours. | See also: Recent months at Norah Head
Date/Time
EST
Temp
°C
App
Temp
°C
Dew
Point
Rel
Hum
%
Delta-T
°C
Wind Press
QNH
hPa
Press
MSL
hPa
Rain
since 9 am
mm
Dir
 
Spd
km/h
Gust
km/h
Spd
kts
Gust
kts
30/08:00pm 16.1 15.6 12.1 77 2.2 WNW 6 9 3 5 1018.6 1018.5 0.0
30/07:30pm 16.4 16.1 12.8 79 2.0 NW 6 9 3 5 1018.4 1018.3 0.0
30/07:00pm 16.6 16.2 13.1 80 2.0 NNW 7 11 4 6 1018.0 1017.9 0.0
30/06:30pm 17.1 16.8 13.2 78 2.2 NNW 7 13 4 7 1017.9 1017.8 0.0
30/06:00pm 16.7 16.1 11.8 73 2.7 N 6 9 3 5 1018.1 1018.0 0.0
30/05:30pm 16.5 16.3 11.9 74 2.5 NNW 4 4 2 2 1018.3 1018.2 0.0
30/05:00pm 16.4 15.8 10.5 68 3.1 NW 4 6 2 3 1018.2 1018.1 0.0
30/04:30pm 17.0 17.0 11.1 68 3.2 NW 2 4 1 2 1018.0 1017.9 0.0
30/04:00pm 17.5 16.7 11.1 66 3.5 N 6 7 3 4 1017.7 1017.6 0.0
30/03:30pm 17.9 17.5 9.8 59 4.3 WNW 2 4 1 2 1017.6 1017.5 0.0
30/03:00pm 18.1 17.6 10.7 62 4.0 NNW 4 6 2 3 1017.8 1017.7 0.0
30/02:30pm 19.1 17.9 9.6 54 5.0 WNW 6 15 3 8 1017.8 1017.7 0.0
30/02:00pm 19.6 18.3 9.8 53 5.2 WNW 7 15 4 8 1018.1 1018.0 0.0
30/01:30pm 19.3 18.7 10.3 56 4.8 WNW 4 9 2 5 1018.3 1018.2 0.0
30/01:00pm 18.7 18.6 12.0 65 3.7 S 4 6 2 3 1018.9 1018.8 0.0
30/12:30pm 18.8 18.8 11.1 61 4.2 W 2 6 1 3 1019.2 1019.1 0.0
30/12:00pm 18.1 18.1 12.5 70 3.1 NW 4 9 2 5 1019.9 1019.8 0.0
30/11:30am 18.4 17.9 12.8 70 3.1 N 7 9 4 5 1020.4 1020.3 0.0
30/11:00am 18.6 18.2 13.0 70 3.1 NNW 7 9 4 5 1020.7 1020.6 0.0
30/10:30am 17.5 17.0 12.6 73 2.7 N 7 13 4 7 1021.2 1021.1 0.0
30/10:00am 16.7 16.9 13.0 79 2.1 NW 4 6 2 3 1021.8 1021.7 0.0
30/09:30am 15.7 16.0 12.3 80 1.9 NW 2 7 1 4 1022.1 1022.0 0.0
30/09:00am 15.5 15.3 11.9 79 1.9 W 4 7 2 4 1022.2 1022.1 0.2
30/08:30am 15.7 15.0 11.3 75 2.4 W 6 7 3 4 1022.0 1021.9 0.2
30/08:00am 15.1 14.7 11.1 77 2.1 W 4 6 2 3 1022.3 1022.2 0.2
30/07:30am 14.1 13.0 10.5 79 1.9 W 7 9 4 5 1022.2 1022.1 0.2
30/07:00am 13.9 12.4 10.5 80 1.8 WSW 9 9 5 5 1022.0 1021.9 0.2
30/06:30am 13.8 12.3 10.6 81 1.7 WSW 9 11 5 6 1021.6 1021.5 0.2
30/06:00am 14.1 12.1 10.3 78 2.0 WSW 11 13 6 7 1021.7 1021.6 0.2
30/05:30am 13.7 11.8 10.5 81 1.7 W 11 15 6 8 1021.6 1021.5 0.2
30/05:00am 13.9 11.9 10.3 79 1.9 WSW 11 13 6 7 1021.3 1021.2 0.2
30/04:30am 13.9 12.1 10.7 81 1.7 W 11 13 6 7 1021.4 1021.3 0.2
30/04:00am 14.0 12.1 10.6 80 1.8 W 11 15 6 8 1021.8 1021.7 0.2
30/03:30am 13.9 12.1 10.7 81 1.7 W 11 15 6 8 1021.6 1021.5 0.2
30/03:00am 14.1 12.6 10.5 79 1.9 WSW 9 13 5 7 1021.7 1021.6 0.2
30/02:30am 14.0 12.3 11.3 84 1.4 W 11 13 6 7 1021.8 1021.7 0.2
30/02:00am 14.5 13.5 11.1 80 1.8 WSW 7 9 4 5 1021.9 1021.8 0.2
30/01:30am 14.3 13.6 11.3 82 1.6 W 6 7 3 4 1022.0 1021.9 0.2
30/01:00am 14.2 14.0 11.7 85 1.3 NW 4 6 2 3 1022.1 1022.0 0.2
30/12:30am 14.7 13.2 11.8 83 1.6 W 11 15 6 8 1022.3 1022.2 0.2
30/12:00am 14.8 13.6 12.7 87 1.1 W 11 17 6 9 1022.3 1022.2 0.2
 
Date/Time
EST
Temp
°C
App
Temp
°C
Dew
Point
Rel
Hum
%
Delta-T
°C
Wind Press
QNH
hPa
Press
MSL
hPa
Rain
since 9 am
mm
Dir
 
Spd
km/h
Gust
km/h
Spd
kts
Gust
kts
29/11:30pm 14.7 14.4 13.4 92 0.7 W 7 11 4 6 1022.3 1022.2 0.2
29/11:00pm 15.4 15.3 13.9 91 0.8 WNW 7 11 4 6 1022.5 1022.4 0.2
29/10:30pm 15.9 16.1 14.3 90 0.9 WNW 6 11 3 6 1022.2 1022.1 0.2
29/10:00pm 16.3 16.7 14.7 90 0.9 WNW 6 9 3 5 1022.4 1022.3 0.2
29/09:30pm 16.7 17.0 14.9 89 1.0 W 7 9 4 5 1022.3 1022.2 0.2
29/09:00pm 16.7 17.2 15.1 90 0.9 WNW 6 9 3 5 1022.2 1022.1 0.2
29/08:30pm 17.0 17.6 15.7 92 0.8 W 7 9 4 5 1022.4 1022.3 0.2
29/08:00pm 17.0 17.7 15.7 92 0.8 WNW 6 7 3 4 1022.5 1022.4 0.2
29/07:30pm 17.1 18.0 15.1 88 1.2 WNW 4 6 2 3 1022.2 1022.1 0.2
29/07:00pm 16.9 18.7 15.4 91 0.9 CALM 0 0 0 0 1022.0 1021.9 0.2
29/06:30pm 17.1 18.9 15.6 91 0.9 CALM 0 0 0 0 1021.7 1021.6 0.2
29/06:00pm 17.5 19.2 15.3 87 1.3 CALM 0 0 0 0 1021.6 1021.5 0.2
29/05:30pm 17.6 18.9 16.1 91 0.9 SSW 4 6 2 3 1021.2 1021.1 0.2
29/05:00pm 17.9 19.5 15.9 88 1.2 SSE 2 4 1 2 1020.8 1020.7 0.2
29/04:30pm 18.4 20.4 16.0 86 1.4 CALM 0 2 0 1 1020.9 1020.8 0.2
29/04:00pm 18.5 20.2 16.1 86 1.4 NW 2 6 1 3 1020.5 1020.4 0.2
29/03:30pm 18.7 19.0 16.1 85 1.5 NNW 9 13 5 7 1020.2 1020.1 0.2
29/03:00pm 18.6 19.8 16.0 85 1.5 NW 4 6 2 3 1020.1 1020.0 0.2
29/02:30pm 18.5 18.0 15.9 85 1.5 NNW 13 17 7 9 1020.0 1019.9 0.2
29/02:00pm 19.1 19.0 16.0 82 1.8 NNW 11 15 6 8 1020.0 1019.9 0.2
29/01:30pm 18.4 18.3 16.0 86 1.4 NNW 11 19 6 10 1019.8 1019.7 0.2
29/01:00pm 18.2 18.7 15.5 84 1.6 NW 7 13 4 7 1019.8 1019.7 0.2
29/12:30pm 18.3 17.7 15.7 85 1.5 NNW 13 15 7 8 1020.0 1019.9 0.2
29/12:00pm 17.7 17.8 15.5 87 1.3 NW 9 15 5 8 1020.4 1020.3 0.2
29/11:30am 17.5 16.4 15.3 87 1.3 NNW 15 19 8 10 1020.9 1020.8 0.2
29/11:00am 17.7 17.9 15.7 88 1.2 NW 9 15 5 8 1020.9 1020.8 0.2
29/10:30am 17.4 17.9 15.6 89 1.1 NW 7 11 4 6 1021.1 1021.0 0.2
29/10:00am 16.9 16.9 15.2 90 1.0 NW 9 13 5 7 1021.0 1020.9 0.0
29/09:30am 17.0 16.7 15.5 91 0.9 NW 11 15 6 8 1021.1 1021.0 0.0
29/09:00am 16.7 15.7 14.7 88 1.1 NW 13 17 7 9 1021.0 1020.9 0.4
29/08:30am 17.2 16.6 14.7 85 1.4 NW 11 19 6 10 1020.9 1020.8 0.2
29/08:00am 17.0 17.0 14.3 84 1.5 NW 7 13 4 7 1020.7 1020.6 0.2
29/07:30am 16.7 16.4 13.4 81 1.9 WNW 7 9 4 5 1020.6 1020.5 0.2
29/07:00am 16.5 16.3 13.6 83 1.6 NW 7 9 4 5 1020.2 1020.1 0.2
29/06:30am 16.5 16.2 13.4 82 1.7 WNW 7 11 4 6 1019.8 1019.7 0.2
29/06:00am 17.0 17.0 13.7 81 1.9 NW 6 9 3 5 1019.6 1019.5 0.2
29/05:30am 16.9 16.4 13.8 82 1.8 NNW 9 15 5 8 1019.0 1018.9 0.2
29/05:00am 17.0 14.6 14.5 85 1.4 N 20 22 11 12 1018.8 1018.7 0.2
29/04:30am 16.9 14.1 14.4 85 1.4 N 22 26 12 14 1018.7 1018.6 0.2
29/04:00am 16.7 14.0 14.7 88 1.1 N 22 26 12 14 1018.9 1018.8 0.2
29/03:30am 16.6 13.7 15.0 90 0.9 N 24 26 13 14 1019.2 1019.1 0.2
29/03:00am 16.6 14.5 14.6 88 1.1 N 19 20 10 11 1019.5 1019.4 0.0
29/02:30am 16.8 15.4 14.4 86 1.4 NNW 15 19 8 10 1019.6 1019.5 0.0
29/02:00am 17.2 16.3 14.8 86 1.4 NNW 13 19 7 10 1019.8 1019.7 0.0
29/01:30am 17.1 15.4 14.7 86 1.4 N 17 19 9 10 1019.8 1019.7 0.0
29/01:00am 17.2 16.2 14.7 85 1.4 NNW 13 15 7 8 1020.2 1020.1 0.0
29/12:30am 17.0 15.6 14.5 85 1.4 N 15 17 8 9 1020.1 1020.0 0.0
29/12:00am 17.1 16.5 14.6 85 1.4 NNW 11 15 6 8 1020.4 1020.3 0.0
 
Date/Time
EST
Temp
°C
App
Temp
°C
Dew
Point
Rel
Hum
%
Delta-T
°C
Wind Press
QNH
hPa
Press
MSL
hPa
Rain
since 9 am
mm
Dir
 
Spd
km/h
Gust
km/h
Spd
kts
Gust
kts
28/11:30pm 16.7 16.3 14.0 84 1.5 NNW 9 13 5 7 1020.8 1020.7 0.0
28/11:00pm 17.0 16.4 14.5 85 1.4 NNW 11 13 6 7 1020.9 1020.8 0.0
28/10:30pm 16.7 16.1 14.5 87 1.3 NNW 11 15 6 8 1021.3 1021.2 0.0
28/10:00pm 16.6 16.2 14.2 86 1.4 NNW 9 13 5 7 1021.3 1021.2 0.0
28/09:30pm 16.9 15.5 14.5 86 1.4 NNW 15 19 8 10 1021.3 1021.2 0.0
28/09:00pm 16.4 15.7 14.2 87 1.2 NW 11 15 6 8 1021.3 1021.2 0.0
28/08:30pm 16.6 15.9 14.4 87 1.3 NW 11 15 6 8 1021.5 1021.4 0.0
28/08:00pm 17.0 16.0 14.6 86 1.4 NNW 13 17 7 9 1021.3 1021.2 0.0
28/07:30pm 17.2 16.1 15.2 88 1.2 NNW 15 20 8 11 1021.2 1021.1 0.0
28/07:00pm 17.1 16.6 14.9 87 1.3 NNW 11 17 6 9 1021.1 1021.0 0.0
28/06:30pm 17.3 16.8 14.8 85 1.4 NNW 11 17 6 9 1021.1 1021.0 0.0
28/06:00pm 17.5 16.9 14.6 83 1.7 NW 11 15 6 8 1020.8 1020.7 0.0
28/05:30pm 17.9 17.7 14.6 81 1.9 NNW 9 15 5 8 1020.9 1020.8 0.0
28/05:00pm 18.4 17.1 14.7 79 2.1 NNW 15 19 8 10 1020.6 1020.5 0.0
28/04:30pm 19.1 17.9 15.0 77 2.4 N 15 19 8 10 1020.5 1020.4 0.0
28/04:00pm 19.4 17.9 15.3 77 2.4 NNE 17 19 9 10 1020.3 1020.2 0.0
28/03:30pm 19.8 18.3 15.2 75 2.7 N 17 19 9 10 1020.6 1020.5 0.0
28/03:00pm 20.1 17.9 14.5 70 3.3 NNE 19 20 10 11 1020.4 1020.3 0.0
28/02:30pm 20.3 18.7 14.0 67 3.6 NNE 15 17 8 9 1020.3 1020.2 0.0
28/02:00pm 20.8 20.8 14.2 66 3.8 NNE 7 11 4 6 1020.5 1020.4 0.0
28/01:30pm 21.6 21.3 15.4 68 3.7 NE 11 13 6 7 1020.7 1020.6 0.0
28/01:00pm 20.9 20.6 14.3 66 3.8 ENE 9 9 5 5 1021.2 1021.1 0.0
28/12:30pm 21.9 22.0 14.5 63 4.3 NE 7 9 4 5 1021.7 1021.6 0.0
28/12:00pm 21.5 21.5 14.2 63 4.2 NE 7 9 4 5 1022.0 1021.9 0.0
28/11:30am 20.9 21.1 14.1 65 3.9 NE 6 7 3 4 1022.6 1022.5 0.0
28/11:00am 20.1 19.9 13.1 64 4.0 N 6 7 3 4 1023.1 1023.0 0.0
28/10:30am 19.6 18.6 12.4 63 4.0 N 9 9 5 5 1023.4 1023.3 0.0
28/10:00am 19.5 19.0 12.0 62 4.1 NNW 6 7 3 4 1023.6 1023.5 0.0
28/09:30am 18.4 17.8 11.7 65 3.7 NW 6 9 3 5 1023.7 1023.6 0.0
28/09:00am 17.0 16.1 10.8 67 3.3 NW 6 11 3 6 1023.6 1023.5 0.0
28/08:30am 16.4 15.4 10.3 67 3.2 WNW 6 11 3 6 1023.5 1023.4 0.0
28/08:00am 15.2 13.5 9.8 70 2.8 W 9 15 5 8 1023.1 1023.0 0.0
28/07:30am 15.0 13.7 9.8 71 2.7 W 7 9 4 5 1023.0 1022.9 0.0
28/07:00am 14.3 12.9 9.7 74 2.4 W 7 13 4 7 1023.1 1023.0 0.0
28/06:30am 14.1 13.0 9.9 76 2.2 WNW 6 11 3 6 1022.9 1022.8 0.0
28/06:00am 13.4 11.7 9.8 79 1.8 WNW 9 11 5 6 1022.4 1022.3 0.0
28/05:30am 13.3 11.7 10.1 81 1.7 WNW 9 13 5 7 1022.2 1022.1 0.0
28/05:00am 12.6 11.5 10.5 87 1.1 WNW 7 11 4 6 1022.1 1022.0 0.0
28/04:30am 12.6 11.1 10.5 87 1.1 WNW 9 13 5 7 1022.1 1022.0 0.0
28/04:00am 13.1 11.5 10.3 83 1.4 WNW 9 11 5 6 1022.2 1022.1 0.0
28/03:30am 13.3 12.1 10.3 82 1.6 NW 7 11 4 6 1022.1 1022.0 0.0
28/03:00am 13.1 12.2 10.6 85 1.3 WNW 6 11 3 6 1022.3 1022.2 0.0
28/02:30am 12.8 11.4 10.9 88 1.0 WNW 9 11 5 6 1022.5 1022.4 0.0
28/02:00am 12.7 11.2 10.6 87 1.1 WNW 9 11 5 6 1022.5 1022.4 0.0
28/01:30am 12.9 11.7 10.4 85 1.3 NW 7 9 4 5 1022.7 1022.6 0.0
28/01:00am 12.8 11.7 10.7 87 1.1 WNW 7 7 4 4 1022.7 1022.6 0.0
28/12:30am 13.5 12.7 11.6 88 1.0 NW 7 9 4 5 1022.8 1022.7 0.0
28/12:00am 13.9 13.1 11.2 84 1.4 NNW 6 7 3 4 1022.8 1022.7 0.0
 
Date/Time
EST
Temp
°C
App
Temp
°C
Dew
Point
Rel
Hum
%
Delta-T
°C
Wind Press
QNH
hPa
Press
MSL
hPa
Rain
since 9 am
mm
Dir
 
Spd
km/h
Gust
km/h
Spd
kts
Gust
kts
27/11:30pm 14.7 12.5 10.7 77 2.1 W 13 19 7 10 1022.8 1022.7 0.0
27/11:00pm 14.6 15.0 11.4 81 1.7 CALM 0 2 0 1 1022.9 1022.8 0.0
27/10:30pm 14.2 14.0 10.4 78 2.0 W 2 4 1 2 1022.8 1022.7 0.0
27/10:00pm 14.4 14.1 10.2 76 2.2 W 2 6 1 3 1022.8 1022.7 0.0
27/09:30pm 14.3 14.0 10.1 76 2.2 NNW 2 4 1 2 1023.0 1022.9 0.0
27/09:00pm 14.8 13.8 10.4 75 2.3 NNW 6 7 3 4 1022.9 1022.8 0.0
27/08:30pm 15.1 15.2 10.3 73 2.5 CALM 0 4 0 2 1022.9 1022.8 0.0

Other Formats:

Comma delimited format used in spreadsheet applications
http://www.bom.gov.au/fwo/IDN60801/IDN60801.95770.axf

JavaScript Object Notation format (JSON) in row-major order
http://www.bom.gov.au/fwo/IDN60801/IDN60801.95770.json